createdAt,value
2023-05-13T00:01:38.970Z,8.30
2023-05-13T00:04:06.904Z,9.73
2023-05-13T00:06:33.715Z,8.70
2023-05-13T00:09:00.813Z,9.33
2023-05-13T00:11:27.728Z,7.57
2023-05-13T00:13:54.657Z,7.93
2023-05-13T00:16:24.356Z,9.23
2023-05-13T00:18:51.731Z,9.30
2023-05-13T00:21:18.539Z,11.40
2023-05-13T00:23:45.162Z,8.60
2023-05-13T00:26:11.693Z,11.83
2023-05-13T00:28:38.478Z,10.03
2023-05-13T00:31:05.088Z,11.43
2023-05-13T00:33:31.864Z,9.13
2023-05-13T00:35:58.482Z,11.40
2023-05-13T00:38:25.009Z,8.93
2023-05-13T00:40:51.608Z,9.60
2023-05-13T00:43:18.157Z,11.53
2023-05-13T00:45:44.761Z,12.27
2023-05-13T00:48:11.754Z,10.87
2023-05-13T00:53:12.942Z,14.53
2023-05-13T00:55:44.210Z,12.57
2023-05-13T00:58:11.663Z,11.80
2023-05-13T01:00:47.992Z,8.83
2023-05-13T01:03:27.309Z,10.73
2023-05-13T01:06:07.804Z,17.03
2023-05-13T01:08:58.627Z,9.90
2023-05-13T01:11:30.184Z,8.10
2023-05-13T01:14:06.705Z,10.50
2023-05-13T01:16:40.999Z,9.33
2023-05-13T01:19:26.388Z,11.70
2023-05-13T01:21:53.841Z,12.40
2023-05-13T01:24:20.575Z,18.33
2023-05-13T01:26:47.737Z,13.67
2023-05-13T01:29:14.527Z,12.17
2023-05-13T01:31:42.760Z,12.27
2023-05-13T01:34:11.567Z,12.80
2023-05-13T01:36:40.063Z,15.10
2023-05-13T01:39:08.496Z,9.30
2023-05-13T01:41:35.299Z,14.20
2023-05-13T01:44:04.794Z,12.10
2023-05-13T01:46:31.475Z,10.10
2023-05-13T01:48:59.229Z,14.90
2023-05-13T01:51:25.938Z,13.70
2023-05-13T01:53:52.551Z,16.20
2023-05-13T01:56:19.098Z,11.20
2023-05-13T01:58:46.220Z,13.37
2023-05-13T02:01:12.761Z,14.70
2023-05-13T02:03:39.505Z,13.37
2023-05-13T02:06:06.486Z,13.33
2023-05-13T02:08:33.125Z,15.07
2023-05-13T02:11:00.752Z,14.07
2023-05-13T02:13:27.391Z,15.70
2023-05-13T02:15:54.704Z,16.70
2023-05-13T02:18:22.404Z,13.20
2023-05-13T02:20:49.241Z,16.63
2023-05-13T02:23:16.897Z,15.73
2023-05-13T02:25:44.109Z,20.13
2023-05-13T02:28:11.056Z,13.23
2023-05-13T02:30:37.703Z,16.50
2023-05-13T02:33:04.348Z,14.30
2023-05-13T02:35:31.062Z,21.33
2023-05-13T02:37:58.428Z,20.37
2023-05-13T02:40:25.008Z,11.90
2023-05-13T02:42:51.669Z,14.37
2023-05-13T02:45:18.694Z,16.73
2023-05-13T02:47:45.301Z,20.20
2023-05-13T02:50:12.690Z,14.17
2023-05-13T02:52:40.218Z,14.73
2023-05-13T02:55:07.825Z,15.47
2023-05-13T02:57:34.727Z,15.73
2023-05-13T03:00:01.624Z,15.57
2023-05-13T03:02:28.473Z,14.30
2023-05-13T03:04:55.770Z,15.00
2023-05-13T03:07:22.860Z,20.73
2023-05-13T03:09:49.488Z,15.23
2023-05-13T03:12:16.289Z,15.13
2023-05-13T03:14:44.473Z,15.57
2023-05-13T03:17:11.474Z,18.93
2023-05-13T03:19:39.316Z,16.60
2023-05-13T03:22:06.640Z,15.63
2023-05-13T03:24:33.360Z,19.07
2023-05-13T03:27:00.327Z,20.33
2023-05-13T03:29:26.925Z,16.87
2023-05-13T03:31:54.349Z,13.40
2023-05-13T03:34:21.062Z,16.80
2023-05-13T03:36:47.689Z,16.33
2023-05-13T03:39:14.251Z,15.83
2023-05-13T03:41:41.051Z,17.47
2023-05-13T03:44:07.709Z,20.67
2023-05-13T03:46:34.372Z,17.00
2023-05-13T03:49:01.013Z,17.13
2023-05-13T03:51:27.795Z,17.17
2023-05-13T03:53:54.363Z,18.10
2023-05-13T03:56:21.776Z,15.27
2023-05-13T03:58:48.443Z,20.60
2023-05-13T04:01:15.016Z,20.30
2023-05-13T04:03:44.396Z,20.43
2023-05-13T04:06:11.132Z,17.17
2023-05-13T04:08:37.728Z,17.73
2023-05-13T04:11:04.452Z,17.07
2023-05-13T04:13:31.047Z,14.37
2023-05-13T04:15:58.236Z,16.27
2023-05-13T04:18:24.851Z,16.73
2023-05-13T04:20:51.440Z,16.17
2023-05-13T04:23:18.066Z,20.93
2023-05-13T04:25:50.910Z,14.30
2023-05-13T04:28:18.391Z,17.37
2023-05-13T04:30:45.329Z,17.27
2023-05-13T04:33:12.127Z,16.53
2023-05-13T04:35:39.043Z,22.43
2023-05-13T04:38:05.915Z,18.37
2023-05-13T04:40:32.591Z,17.37
2023-05-13T04:42:59.175Z,20.33
2023-05-13T04:45:25.770Z,16.27
2023-05-13T04:47:52.341Z,18.83
2023-05-13T04:50:19.143Z,16.10
2023-05-13T04:52:47.441Z,17.83
2023-05-13T04:55:14.194Z,17.83
2023-05-13T04:57:40.913Z,16.93
2023-05-13T05:00:09.604Z,17.27
2023-05-13T05:02:36.285Z,20.90
2023-05-13T05:05:03.498Z,17.00
2023-05-13T05:07:30.109Z,17.47
2023-05-13T05:09:56.835Z,15.73
2023-05-13T05:12:23.560Z,17.43
2023-05-13T05:14:50.114Z,16.50
2023-05-13T05:17:16.722Z,17.87
2023-05-13T05:19:43.447Z,13.67
2023-05-13T05:22:10.064Z,19.53
2023-05-13T05:24:36.761Z,16.00
2023-05-13T05:27:03.480Z,18.00
2023-05-13T05:29:30.024Z,14.83
2023-05-13T05:31:56.669Z,15.03
2023-05-13T05:34:23.377Z,13.00
2023-05-13T05:36:50.028Z,16.30
2023-05-13T05:39:16.583Z,12.40
2023-05-13T05:41:43.160Z,13.97
2023-05-13T05:44:09.756Z,22.30
2023-05-13T05:46:36.353Z,10.10
2023-05-13T05:49:03.850Z,10.57
2023-05-13T05:51:30.576Z,12.50
2023-05-13T05:53:57.114Z,11.40
2023-05-13T05:56:23.704Z,11.37
2023-05-13T05:58:50.288Z,13.07
2023-05-13T06:01:16.866Z,13.10
2023-05-13T06:03:43.655Z,12.80
2023-05-13T06:06:10.429Z,10.00
2023-05-13T06:08:37.054Z,12.23
2023-05-13T06:11:03.618Z,16.97
2023-05-13T06:13:30.262Z,12.10
2023-05-13T06:15:57.017Z,12.60
2023-05-13T06:18:23.753Z,7.00
2023-05-13T06:20:50.381Z,10.33
2023-05-13T06:23:17.027Z,9.83
2023-05-13T06:25:43.675Z,10.73
2023-05-13T06:28:11.366Z,6.97
2023-05-13T06:30:38.813Z,8.60
2023-05-13T06:33:05.645Z,8.33
2023-05-13T06:35:32.260Z,9.10
2023-05-13T06:37:58.819Z,9.17
2023-05-13T06:40:25.495Z,11.07
2023-05-13T06:42:52.084Z,6.43
2023-05-13T06:45:26.046Z,8.67
2023-05-13T06:47:53.605Z,6.10
2023-05-13T06:50:20.805Z,7.37
2023-05-13T06:52:47.597Z,11.77
2023-05-13T06:55:14.283Z,9.50
2023-05-13T06:57:43.476Z,9.87
2023-05-13T07:00:10.851Z,8.43
2023-05-13T07:02:37.773Z,8.93
2023-05-13T07:05:05.146Z,8.97
2023-05-13T07:07:31.773Z,7.40
2023-05-13T07:09:58.406Z,6.50
2023-05-13T07:12:25.182Z,6.27
2023-05-13T07:14:52.031Z,6.13
2023-05-13T07:17:18.656Z,6.03
2023-05-13T07:19:45.254Z,8.10
2023-05-13T07:22:12.003Z,6.37
2023-05-13T07:24:38.948Z,5.43
2023-05-13T07:27:06.081Z,6.40
2023-05-13T07:29:33.397Z,18.63
2023-05-13T07:32:05.487Z,8.23
2023-05-13T07:34:32.696Z,8.57
2023-05-13T07:36:59.347Z,6.70
2023-05-13T07:39:26.773Z,6.27
2023-05-13T07:41:53.718Z,6.40
2023-05-13T07:44:20.300Z,10.17
2023-05-13T07:46:46.924Z,6.20
2023-05-13T07:49:13.750Z,6.07
2023-05-13T07:51:40.593Z,6.37
2023-05-13T07:54:07.171Z,4.37
2023-05-13T07:56:33.887Z,6.53
2023-05-13T07:59:00.561Z,6.87
2023-05-13T08:01:27.421Z,5.80
2023-05-13T08:03:54.255Z,6.10
2023-05-13T08:06:21.114Z,6.63
2023-05-13T08:08:47.655Z,6.53
2023-05-13T08:11:14.368Z,23.97
2023-05-13T08:13:40.984Z,14.43
2023-05-13T08:16:07.780Z,5.93
2023-05-13T08:18:34.478Z,5.13
2023-05-13T08:21:01.384Z,5.50
2023-05-13T08:23:40.932Z,8.50
2023-05-13T08:26:11.661Z,8.63
2023-05-13T08:28:38.777Z,7.20
2023-05-13T08:31:05.464Z,7.77
2023-05-13T08:33:32.657Z,4.53
2023-05-13T08:36:01.195Z,5.20
2023-05-13T08:38:27.857Z,4.10
2023-05-13T08:40:54.532Z,6.83
2023-05-13T08:43:24.359Z,7.17
2023-05-13T08:45:53.568Z,19.03
2023-05-13T08:48:20.667Z,6.20
2023-05-13T08:50:48.094Z,3.80
2023-05-13T08:53:17.170Z,5.07
2023-05-13T08:55:43.881Z,6.77
2023-05-13T08:58:10.530Z,8.07
2023-05-13T09:00:37.356Z,7.33
2023-05-13T09:03:04.281Z,3.43
2023-05-13T09:05:32.177Z,4.33
2023-05-13T09:07:59.089Z,5.13
2023-05-13T09:10:25.644Z,7.30
2023-05-13T09:12:56.234Z,5.00
2023-05-13T09:15:25.571Z,5.60
2023-05-13T09:18:01.412Z,6.67
2023-05-13T09:20:28.852Z,4.80
2023-05-13T09:23:04.158Z,4.63
2023-05-13T09:25:31.513Z,4.17
2023-05-13T09:28:00.070Z,8.73
2023-05-13T09:30:31.095Z,6.37
2023-05-13T09:33:12.277Z,3.63
2023-05-13T09:35:41.973Z,4.90
2023-05-13T09:38:31.946Z,4.47
2023-05-13T09:41:00.752Z,7.63
2023-05-13T09:43:32.379Z,7.17
2023-05-13T09:46:05.687Z,10.17
2023-05-13T09:48:34.106Z,5.63
2023-05-13T09:51:01.398Z,6.47
2023-05-13T09:53:28.744Z,6.50
2023-05-13T09:55:57.365Z,4.72
2023-05-13T09:58:25.845Z,6.40
2023-05-13T10:00:52.794Z,4.90
2023-05-13T10:03:19.651Z,4.35
2023-05-13T10:05:50.498Z,5.07
2023-05-13T10:08:18.426Z,4.95
2023-05-13T10:10:47.516Z,8.15
2023-05-13T10:13:16.828Z,5.57
2023-05-13T10:15:55.425Z,5.85
2023-05-13T10:18:24.174Z,5.05
2023-05-13T10:20:53.927Z,3.90
2023-05-13T10:23:21.823Z,7.47
2023-05-13T10:25:49.039Z,4.28
2023-05-13T10:28:16.853Z,8.00
2023-05-13T10:30:44.255Z,6.35
2023-05-13T10:33:11.123Z,6.35
2023-05-13T10:35:42.693Z,3.60
2023-05-13T10:38:16.523Z,7.53
2023-05-13T10:41:09.686Z,6.72
2023-05-13T10:43:37.539Z,4.00
2023-05-13T10:46:11.520Z,2.67
2023-05-13T10:48:51.042Z,3.30
2023-05-13T10:51:24.132Z,5.40
2023-05-13T10:53:53.292Z,5.22
2023-05-13T10:56:22.187Z,6.47
2023-05-13T10:59:01.541Z,7.28
2023-05-13T11:01:35.772Z,8.73
2023-05-13T11:04:05.301Z,6.68
2023-05-13T11:06:37.475Z,10.27
2023-05-13T11:09:15.132Z,2.65
2023-05-13T11:11:42.484Z,6.75
2023-05-13T11:14:16.307Z,4.97
2023-05-13T11:16:47.993Z,3.97
2023-05-13T11:19:23.781Z,5.38
2023-05-13T11:21:53.211Z,5.35
2023-05-13T11:24:21.821Z,5.40
2023-05-13T11:26:54.389Z,8.45
2023-05-13T11:29:29.997Z,5.93
2023-05-13T11:32:00.513Z,6.43
2023-05-13T11:34:28.362Z,5.63
2023-05-13T11:37:03.775Z,6.65
2023-05-13T11:39:30.818Z,4.28
2023-05-13T11:41:57.725Z,3.72
2023-05-13T11:44:25.672Z,3.88
2023-05-13T11:46:57.447Z,4.22
2023-05-13T11:49:44.312Z,4.45
2023-05-13T11:52:15.431Z,9.13
2023-05-13T11:54:47.676Z,6.43
2023-05-13T11:57:24.164Z,5.32
2023-05-13T11:59:55.868Z,6.00
2023-05-13T12:02:30.786Z,3.38
2023-05-13T12:05:04.551Z,6.90
2023-05-13T12:07:32.052Z,4.50
2023-05-13T12:10:00.766Z,5.05
2023-05-13T12:12:29.313Z,6.13
2023-05-13T12:14:59.792Z,2.72
2023-05-13T12:17:26.743Z,2.40
2023-05-13T12:20:08.829Z,4.45
2023-05-13T12:22:36.568Z,3.92
2023-05-13T12:25:35.169Z,2.60
2023-05-13T12:28:14.289Z,4.93
2023-05-13T12:30:52.692Z,5.63
2023-05-13T12:33:27.198Z,4.50
2023-05-13T12:36:14.770Z,3.85
2023-05-13T12:39:00.050Z,3.33
2023-05-13T12:41:51.984Z,4.57
2023-05-13T12:44:18.797Z,2.75
2023-05-13T12:46:57.378Z,4.47
2023-05-13T12:49:24.272Z,4.50
2023-05-13T12:51:52.269Z,2.17
2023-05-13T12:54:19.178Z,2.20
2023-05-13T12:56:46.061Z,3.60
2023-05-13T12:59:14.696Z,2.47
2023-05-13T13:01:42.990Z,3.08
2023-05-13T13:04:09.889Z,4.47
2023-05-13T13:06:36.666Z,6.20
2023-05-13T13:09:03.447Z,7.22
2023-05-13T13:11:30.146Z,5.70
2023-05-13T13:13:56.735Z,2.60
2023-05-13T13:16:23.654Z,4.40
2023-05-13T13:18:53.442Z,6.55
2023-05-13T13:21:22.237Z,3.90
2023-05-13T13:23:48.851Z,4.65
2023-05-13T13:26:15.406Z,2.72
2023-05-13T13:28:44.352Z,2.65
2023-05-13T13:31:12.214Z,2.95
2023-05-13T13:33:39.063Z,1.98
2023-05-13T13:36:06.096Z,3.47
2023-05-13T13:38:32.829Z,2.17
2023-05-13T13:40:59.410Z,3.17
2023-05-13T13:43:25.977Z,2.00
2023-05-13T13:45:52.727Z,2.55
2023-05-13T13:48:19.427Z,2.95
2023-05-13T13:50:47.761Z,1.70
2023-05-13T13:55:48.737Z,4.82
2023-05-13T13:58:15.922Z,1.90
2023-05-13T14:00:42.576Z,2.47
2023-05-13T14:03:09.369Z,2.28
2023-05-13T14:05:36.092Z,4.68
2023-05-13T14:08:02.757Z,4.65
2023-05-13T14:10:29.499Z,4.05
2023-05-13T14:12:56.143Z,3.17
2023-05-13T14:15:24.422Z,5.47
2023-05-13T14:17:51.056Z,1.20
2023-05-13T14:20:17.769Z,1.45
2023-05-13T14:22:44.400Z,4.28
2023-05-13T14:25:11.037Z,7.53
2023-05-13T14:27:37.642Z,1.75
2023-05-13T14:30:05.539Z,2.95
2023-05-13T14:32:32.945Z,3.72
2023-05-13T14:34:59.607Z,3.63
2023-05-13T14:37:26.351Z,3.08
2023-05-13T14:39:53.029Z,2.70
2023-05-13T14:42:19.629Z,3.53
2023-05-13T14:44:46.301Z,3.60
2023-05-13T14:47:13.100Z,3.45
2023-05-13T14:49:39.636Z,2.45
2023-05-13T14:52:06.341Z,2.03
2023-05-13T14:54:35.839Z,3.92
2023-05-13T14:57:07.058Z,2.03
2023-05-13T14:59:34.106Z,2.35
2023-05-13T15:02:02.703Z,6.45
2023-05-13T15:04:29.475Z,4.53
2023-05-13T15:06:56.847Z,4.35
2023-05-13T15:09:23.877Z,2.33
2023-05-13T15:11:50.728Z,2.45
2023-05-13T15:14:18.817Z,1.80
2023-05-13T15:16:51.160Z,3.22
2023-05-13T15:19:18.815Z,8.40
2023-05-13T15:21:45.849Z,3.92
2023-05-13T15:24:15.402Z,4.50
2023-05-13T15:26:43.329Z,4.43
2023-05-13T15:29:09.969Z,1.50
2023-05-13T15:31:36.554Z,4.95
2023-05-13T15:34:03.410Z,4.00
2023-05-13T15:36:29.961Z,1.20
2023-05-13T15:38:56.567Z,4.65
2023-05-13T15:41:23.111Z,8.15
2023-05-13T15:43:49.733Z,4.20
2023-05-13T15:46:16.652Z,2.00
2023-05-13T15:48:43.365Z,3.75
2023-05-13T15:51:09.934Z,3.53
2023-05-13T15:53:36.510Z,5.18
2023-05-13T15:56:03.161Z,4.57
2023-05-13T15:58:29.797Z,6.07
2023-05-13T16:00:56.372Z,2.60
2023-05-13T16:03:22.995Z,3.65
2023-05-13T16:05:49.706Z,2.38
2023-05-13T16:08:16.494Z,4.20
2023-05-13T16:10:43.271Z,1.48
2023-05-13T16:13:09.870Z,3.78
2023-05-13T16:15:36.551Z,5.65
2023-05-13T16:18:03.742Z,3.53
2023-05-13T16:20:30.443Z,5.37
2023-05-13T16:22:57.037Z,2.65
2023-05-13T16:25:24.861Z,1.73
2023-05-13T16:27:51.901Z,4.95
2023-05-13T16:30:18.496Z,3.17
2023-05-13T16:32:47.792Z,3.38
2023-05-13T16:35:14.684Z,6.45
2023-05-13T16:37:41.400Z,4.22
2023-05-13T16:40:08.720Z,5.10
2023-05-13T16:42:35.289Z,1.90
2023-05-13T16:45:01.969Z,3.83
2023-05-13T16:47:28.836Z,3.22
2023-05-13T16:49:56.389Z,3.55
2023-05-13T16:52:24.050Z,2.67
2023-05-13T16:54:50.854Z,3.55
2023-05-13T16:57:19.374Z,2.80
2023-05-13T16:59:46.038Z,4.13
2023-05-13T17:02:12.803Z,4.53
2023-05-13T17:04:39.434Z,5.47
2023-05-13T17:07:06.890Z,4.10
2023-05-13T17:09:33.906Z,3.95
2023-05-13T17:12:00.575Z,4.85
2023-05-13T17:14:27.367Z,3.15
2023-05-13T17:16:54.084Z,6.85
2023-05-13T17:19:20.914Z,2.85
2023-05-13T17:21:47.580Z,6.40
2023-05-13T17:24:14.133Z,9.77
2023-05-13T17:26:41.195Z,6.45
2023-05-13T17:29:07.933Z,3.72
2023-05-13T17:31:34.513Z,5.70
2023-05-13T17:34:01.133Z,8.60
2023-05-13T17:36:27.849Z,3.55
2023-05-13T17:38:54.465Z,3.90
2023-05-13T17:41:21.916Z,4.75
2023-05-13T17:43:48.591Z,4.03
2023-05-13T17:46:15.308Z,4.90
2023-05-13T17:48:42.516Z,3.42
2023-05-13T17:51:09.379Z,7.57
2023-05-13T17:53:35.978Z,10.50
2023-05-13T17:56:02.678Z,4.75
2023-05-13T17:58:29.310Z,5.90
2023-05-13T18:00:56.078Z,6.10
2023-05-13T18:03:22.769Z,9.07
2023-05-13T18:05:49.532Z,5.70
2023-05-13T18:08:16.264Z,5.93
2023-05-13T18:10:43.654Z,4.80
2023-05-13T18:13:11.150Z,3.28
2023-05-13T18:15:37.922Z,5.45
2023-05-13T18:18:04.732Z,4.25
2023-05-13T18:20:32.996Z,4.07
2023-05-13T18:23:00.045Z,3.70
2023-05-13T18:25:26.732Z,3.80
2023-05-13T18:27:54.447Z,3.73
2023-05-13T18:30:21.385Z,3.97
2023-05-13T18:32:48.365Z,2.50
2023-05-13T18:35:16.202Z,4.53
2023-05-13T18:37:42.886Z,3.27
2023-05-13T18:40:10.004Z,5.13
2023-05-13T18:42:36.777Z,4.00
2023-05-13T18:45:03.582Z,4.30
2023-05-13T18:47:30.145Z,6.83
2023-05-13T18:49:56.711Z,7.53
2023-05-13T18:52:23.318Z,4.67
2023-05-13T18:54:49.905Z,7.57
2023-05-13T18:57:16.941Z,7.47
2023-05-13T18:59:43.619Z,3.37
2023-05-13T19:02:10.515Z,3.50
2023-05-13T19:04:37.177Z,3.53
2023-05-13T19:07:03.754Z,5.57
2023-05-13T19:09:30.521Z,8.60
2023-05-13T19:11:57.193Z,3.83
2023-05-13T19:14:23.760Z,5.03
2023-05-13T19:16:50.407Z,3.80
2023-05-13T19:19:17.176Z,4.73
2023-05-13T19:21:43.810Z,4.30
2023-05-13T19:24:10.437Z,4.00
2023-05-13T19:26:37.166Z,4.00
2023-05-13T19:29:03.886Z,4.50
2023-05-13T19:31:31.607Z,7.53
2023-05-13T19:33:58.471Z,4.57
2023-05-13T19:36:26.525Z,3.20
2023-05-13T19:38:53.756Z,5.73
2023-05-13T19:41:20.476Z,6.50
2023-05-13T19:43:47.125Z,8.13
2023-05-13T19:46:13.791Z,44.70
2023-05-13T19:48:40.620Z,13.37
2023-05-13T19:51:07.306Z,5.00
2023-05-13T19:53:33.949Z,6.70
2023-05-13T19:56:01.361Z,4.90
2023-05-13T19:58:28.568Z,5.53
2023-05-13T20:00:56.073Z,10.00
2023-05-13T20:03:22.949Z,4.03
2023-05-13T20:05:50.769Z,8.13
2023-05-13T20:08:17.482Z,8.20
2023-05-13T20:10:44.170Z,4.97
2023-05-13T20:13:10.930Z,7.07
2023-05-13T20:15:37.657Z,3.97
2023-05-13T20:18:04.371Z,5.30
2023-05-13T20:20:31.006Z,8.20
2023-05-13T20:22:57.553Z,7.17
2023-05-13T20:25:24.184Z,10.73
2023-05-13T20:27:50.821Z,6.33
2023-05-13T20:30:17.564Z,5.30
2023-05-13T20:32:44.272Z,3.80
2023-05-13T20:35:10.929Z,4.17
2023-05-13T20:37:37.523Z,6.87
2023-05-13T20:40:04.729Z,6.37
2023-05-13T20:42:32.089Z,9.13
2023-05-13T20:44:58.652Z,5.30
2023-05-13T20:47:25.273Z,6.57
2023-05-13T20:49:51.860Z,6.83
2023-05-13T20:52:18.446Z,8.03
2023-05-13T20:54:45.038Z,4.37
2023-05-13T20:57:11.649Z,6.47
2023-05-13T20:59:38.266Z,5.27
2023-05-13T21:02:05.072Z,6.03
2023-05-13T21:04:31.736Z,6.37
2023-05-13T21:06:58.418Z,7.40
2023-05-13T21:09:25.127Z,6.33
2023-05-13T21:11:51.693Z,8.43
2023-05-13T21:14:18.336Z,5.17
2023-05-13T21:16:44.944Z,6.57
2023-05-13T21:19:22.888Z,8.30
2023-05-13T21:21:50.216Z,8.40
2023-05-13T21:24:18.403Z,5.97
2023-05-13T21:26:45.803Z,8.27
2023-05-13T21:29:12.518Z,8.17
2023-05-13T21:31:39.323Z,6.73
2023-05-13T21:34:06.029Z,7.33
2023-05-13T21:36:33.979Z,6.53
2023-05-13T21:39:00.702Z,6.50
2023-05-13T21:41:27.493Z,7.53
2023-05-13T21:43:54.253Z,10.67
2023-05-13T21:46:20.933Z,8.70
2023-05-13T21:48:48.233Z,6.10
2023-05-13T21:51:14.965Z,6.40
2023-05-13T21:53:41.552Z,5.27
2023-05-13T21:56:08.175Z,8.97
2023-05-13T21:58:34.901Z,5.63
2023-05-13T22:01:01.960Z,5.53
2023-05-13T22:03:28.648Z,5.40
2023-05-13T22:08:47.483Z,5.77
2023-05-13T22:11:14.899Z,5.57
2023-05-13T22:13:41.493Z,12.67
2023-05-13T22:16:08.449Z,8.73
2023-05-13T22:18:35.369Z,5.93
2023-05-13T22:21:02.152Z,7.37
2023-05-13T22:23:28.681Z,5.30
2023-05-13T22:25:55.224Z,6.83
2023-05-13T22:28:21.814Z,7.00
2023-05-13T22:30:51.715Z,7.63
2023-05-13T22:33:19.787Z,9.33
2023-05-13T22:35:47.786Z,9.57
2023-05-13T22:38:14.645Z,7.10
2023-05-13T22:40:50.717Z,7.77
2023-05-13T22:43:18.004Z,7.40
2023-05-13T22:45:51.799Z,8.73
2023-05-13T22:48:18.594Z,7.07
2023-05-13T22:50:48.069Z,7.10
2023-05-13T22:53:20.273Z,6.83
2023-05-13T22:55:47.234Z,9.33
2023-05-13T22:58:17.452Z,5.83
2023-05-13T23:00:51.192Z,10.20
2023-05-13T23:03:21.300Z,9.07
2023-05-13T23:05:47.890Z,6.50
2023-05-13T23:08:14.648Z,6.93
2023-05-13T23:10:41.291Z,6.23
2023-05-13T23:13:07.920Z,6.57
2023-05-13T23:15:37.139Z,5.77
2023-05-13T23:18:03.859Z,8.77
2023-05-13T23:20:30.673Z,6.43
2023-05-13T23:22:57.280Z,7.97
2023-05-13T23:25:23.860Z,5.30
2023-05-13T23:27:51.462Z,6.30
2023-05-13T23:30:18.284Z,6.80
2023-05-13T23:32:45.090Z,11.73
2023-05-13T23:35:12.691Z,10.27
2023-05-13T23:37:39.279Z,8.93
2023-05-13T23:40:06.814Z,6.83
2023-05-13T23:42:33.429Z,6.57
2023-05-13T23:44:59.972Z,7.53
2023-05-13T23:47:26.546Z,8.53
2023-05-13T23:49:53.130Z,6.87
2023-05-13T23:52:19.740Z,5.80
2023-05-13T23:54:46.370Z,7.77
2023-05-13T23:57:12.926Z,5.90
2023-05-13T23:59:39.525Z,10.93
